createdAt,value
2019-05-09T00:01:16.727Z,10.66
2019-05-09T00:03:44.956Z,10.69
2019-05-09T00:06:13.802Z,10.67
2019-05-09T00:08:44.122Z,10.67
2019-05-09T00:11:14.606Z,10.65
2019-05-09T00:13:43.534Z,10.66
2019-05-09T00:16:14.238Z,10.68
2019-05-09T00:18:44.017Z,10.69
2019-05-09T00:21:23.896Z,10.69
2019-05-09T00:23:54.138Z,10.71
2019-05-09T00:26:23.546Z,10.73
2019-05-09T00:28:53.918Z,10.73
2019-05-09T00:31:40.073Z,10.72
2019-05-09T00:34:10.002Z,10.70
2019-05-09T00:36:38.227Z,10.69
2019-05-09T00:39:06.502Z,10.69
2019-05-09T00:41:34.804Z,10.66
2019-05-09T00:44:10.502Z,10.63
2019-05-09T00:46:40.376Z,10.68
2019-05-09T00:49:10.328Z,10.68
2019-05-09T00:51:38.550Z,10.68
2019-05-09T00:54:06.781Z,10.71
2019-05-09T00:56:35.058Z,10.71
2019-05-09T00:59:04.231Z,10.72
2019-05-09T01:01:34.206Z,10.70
2019-05-09T01:04:04.297Z,10.71
2019-05-09T01:06:33.992Z,10.70
2019-05-09T01:09:04.186Z,10.66
2019-05-09T01:11:33.279Z,10.66
2019-05-09T01:14:03.571Z,10.63
2019-05-09T01:16:33.481Z,10.59
2019-05-09T01:19:03.549Z,10.58
2019-05-09T01:21:33.325Z,10.55
2019-05-09T01:24:03.327Z,10.53
2019-05-09T01:26:33.332Z,10.55
2019-05-09T01:29:04.166Z,10.53
2019-05-09T01:31:33.267Z,10.49
2019-05-09T01:34:06.025Z,10.47
2019-05-09T01:36:53.900Z,10.50
2019-05-09T01:39:24.066Z,10.53
2019-05-09T01:41:53.171Z,10.54
2019-05-09T01:44:23.805Z,10.52
2019-05-09T01:46:53.864Z,10.52
2019-05-09T01:49:23.264Z,10.53
2019-05-09T01:51:53.708Z,10.51
2019-05-09T01:54:23.748Z,10.55
2019-05-09T01:56:53.770Z,10.59
2019-05-09T01:59:24.101Z,10.59
2019-05-09T02:01:54.089Z,10.60
2019-05-09T02:04:24.335Z,10.59
2019-05-09T02:06:53.737Z,10.57
2019-05-09T02:09:23.409Z,10.56
2019-05-09T02:11:54.348Z,10.54
2019-05-09T02:14:24.045Z,10.59
2019-05-09T02:16:53.936Z,10.59
2019-05-09T02:19:26.576Z,10.58
2019-05-09T02:21:54.812Z,10.58
2019-05-09T02:24:23.482Z,10.58
2019-05-09T02:26:53.325Z,10.58
2019-05-09T02:29:23.201Z,10.60
2019-05-09T02:31:54.459Z,10.60
2019-05-09T02:34:24.569Z,10.60
2019-05-09T02:36:51.931Z,10.60
2019-05-09T02:39:20.205Z,10.58
2019-05-09T02:42:00.898Z,10.54
2019-05-09T02:44:19.567Z,10.58
2019-05-09T02:46:59.044Z,10.57
2019-05-09T02:49:28.725Z,10.58
2019-05-09T02:51:59.215Z,10.58
2019-05-09T02:54:29.849Z,10.54
2019-05-09T02:56:58.229Z,10.52
2019-05-09T02:59:31.133Z,10.52
2019-05-09T03:02:09.386Z,10.52
2019-05-09T03:04:39.065Z,10.51
2019-05-09T03:07:09.451Z,10.46
2019-05-09T03:09:38.825Z,10.45
2019-05-09T03:12:23.070Z,10.47
2019-05-09T03:14:38.516Z,10.42
2019-05-09T03:17:08.802Z,10.41
2019-05-09T03:19:38.656Z,10.40
2019-05-09T03:22:18.766Z,10.38
2019-05-09T03:24:48.564Z,10.34
2019-05-09T03:27:18.999Z,10.35
2019-05-09T03:29:49.164Z,10.40
2019-05-09T03:32:19.485Z,10.38
2019-05-09T03:34:47.880Z,10.37
2019-05-09T03:37:17.714Z,10.34
2019-05-09T03:39:47.808Z,10.35
2019-05-09T03:42:21.213Z,10.34
2019-05-09T03:44:47.738Z,10.34
2019-05-09T03:47:17.974Z,10.32
2019-05-09T03:49:47.843Z,10.29
2019-05-09T03:52:17.784Z,10.32
2019-05-09T03:54:47.697Z,10.31
2019-05-09T03:57:28.361Z,10.28
2019-05-09T03:59:57.291Z,10.29
2019-05-09T04:02:28.088Z,10.29
2019-05-09T04:04:57.679Z,10.28
2019-05-09T04:07:27.775Z,10.30
2019-05-09T04:09:55.542Z,10.30
2019-05-09T04:12:23.774Z,10.33
2019-05-09T04:14:52.050Z,10.29
2019-05-09T04:17:20.292Z,10.28
2019-05-09T04:19:48.766Z,10.29
2019-05-09T04:22:18.170Z,10.24
2019-05-09T04:24:47.491Z,10.20
2019-05-09T04:27:20.528Z,10.16
2019-05-09T04:29:48.822Z,10.14
2019-05-09T04:32:18.294Z,10.18
2019-05-09T04:34:47.442Z,10.19
2019-05-09T04:37:17.838Z,10.18
2019-05-09T04:39:47.664Z,10.21
2019-05-09T04:42:18.364Z,10.18
2019-05-09T04:44:49.933Z,10.17
2019-05-09T04:47:17.483Z,10.19
2019-05-09T04:49:47.892Z,10.20
2019-05-09T04:52:17.893Z,10.22
2019-05-09T04:54:45.697Z,10.23
2019-05-09T04:57:13.925Z,10.27
2019-05-09T04:59:42.276Z,10.30
2019-05-09T05:02:24.346Z,10.33
2019-05-09T05:04:52.619Z,10.35
2019-05-09T05:07:20.850Z,10.35
2019-05-09T05:09:49.167Z,10.37
2019-05-09T05:12:18.519Z,10.37
2019-05-09T05:14:47.710Z,10.38
2019-05-09T05:17:17.942Z,10.37
2019-05-09T05:19:47.687Z,10.37
2019-05-09T05:22:18.274Z,10.34
2019-05-09T05:24:55.790Z,10.29
2019-05-09T05:27:24.450Z,10.27
2019-05-09T05:29:52.904Z,10.29
2019-05-09T05:32:40.987Z,10.48
2019-05-09T05:35:13.670Z,10.67
2019-05-09T05:37:41.950Z,10.78
2019-05-09T05:40:10.197Z,10.94
2019-05-09T05:42:39.002Z,11.01
2019-05-09T05:45:07.663Z,11.07
2019-05-09T05:47:38.011Z,11.14
2019-05-09T05:50:08.346Z,11.18
2019-05-09T05:52:37.537Z,11.27
2019-05-09T05:55:07.529Z,11.24
2019-05-09T05:57:38.382Z,11.20
2019-05-09T06:00:07.918Z,11.09
2019-05-09T06:02:38.331Z,10.98
2019-05-09T06:05:08.501Z,10.84
2019-05-09T06:07:37.843Z,10.76
2019-05-09T06:10:08.212Z,10.74
2019-05-09T06:12:38.121Z,10.65
2019-05-09T06:15:07.597Z,10.55
2019-05-09T06:17:38.047Z,10.54
2019-05-09T06:20:08.978Z,10.53
2019-05-09T06:22:38.199Z,10.50
2019-05-09T06:25:09.675Z,10.48
2019-05-09T06:27:37.558Z,10.50
2019-05-09T06:30:08.690Z,10.49
2019-05-09T06:32:38.482Z,10.56
2019-05-09T06:35:08.381Z,10.66
2019-05-09T06:37:38.289Z,10.82
2019-05-09T06:40:08.097Z,10.91
2019-05-09T06:42:38.096Z,11.04
2019-05-09T06:45:08.299Z,11.12
2019-05-09T06:47:38.240Z,11.17
2019-05-09T06:50:10.577Z,11.14
2019-05-09T06:52:38.807Z,11.18
2019-05-09T06:55:08.615Z,11.12
2019-05-09T06:57:42.163Z,11.08
2019-05-09T07:00:08.826Z,11.05
2019-05-09T07:02:57.310Z,10.96
2019-05-09T07:05:29.219Z,10.92
2019-05-09T07:08:11.346Z,10.89
2019-05-09T07:10:39.605Z,10.79
2019-05-09T07:13:08.121Z,10.75
2019-05-09T07:15:37.650Z,10.76
2019-05-09T07:18:08.030Z,10.72
2019-05-09T07:20:37.849Z,10.82
2019-05-09T07:23:08.388Z,11.00
2019-05-09T07:25:47.852Z,11.09
2019-05-09T07:28:17.971Z,11.22
2019-05-09T07:30:48.379Z,11.48
2019-05-09T07:33:27.928Z,11.65
2019-05-09T07:35:58.112Z,11.74
2019-05-09T07:38:30.569Z,12.06
2019-05-09T07:41:00.073Z,12.21
2019-05-09T07:43:28.489Z,12.46
2019-05-09T07:46:13.037Z,12.62
2019-05-09T07:48:42.966Z,12.35
2019-05-09T07:51:11.191Z,12.58
2019-05-09T07:53:39.467Z,12.47
2019-05-09T07:56:08.140Z,12.36
2019-05-09T07:58:37.715Z,12.27
2019-05-09T08:01:08.635Z,12.17
2019-05-09T08:03:38.408Z,12.21
2019-05-09T08:06:08.416Z,12.85
2019-05-09T08:08:38.459Z,12.93
2019-05-09T08:11:08.598Z,12.66
2019-05-09T08:13:38.577Z,12.59
2019-05-09T08:16:07.928Z,12.77
2019-05-09T08:18:37.543Z,13.02
2019-05-09T08:21:08.268Z,13.32
2019-05-09T08:23:38.015Z,13.66
2019-05-09T08:26:08.482Z,13.62
2019-05-09T08:28:38.580Z,13.62
2019-05-09T08:31:08.349Z,13.80
2019-05-09T08:33:38.104Z,13.98
2019-05-09T08:36:08.558Z,14.03
2019-05-09T08:38:38.538Z,14.18
2019-05-09T08:41:09.736Z,14.32
2019-05-09T08:43:38.294Z,14.38
2019-05-09T08:46:07.858Z,14.54
2019-05-09T08:48:37.835Z,14.69
2019-05-09T08:51:10.887Z,14.89
2019-05-09T08:53:39.119Z,15.01
2019-05-09T08:56:09.035Z,15.31
2019-05-09T08:58:38.318Z,15.27
2019-05-09T09:01:09.655Z,15.23
2019-05-09T09:03:37.699Z,14.88
2019-05-09T09:06:08.326Z,15.30
2019-05-09T09:08:38.040Z,15.44
2019-05-09T09:11:08.633Z,15.46
2019-05-09T09:13:37.803Z,15.46
2019-05-09T09:16:15.712Z,15.35
2019-05-09T09:18:38.822Z,15.53
2019-05-09T09:21:08.088Z,15.71
2019-05-09T09:23:44.141Z,15.74
2019-05-09T09:26:08.030Z,15.78
2019-05-09T09:28:37.990Z,16.04
2019-05-09T09:31:08.217Z,16.20
2019-05-09T09:33:37.673Z,15.75
2019-05-09T09:36:08.538Z,15.92
2019-05-09T09:38:37.578Z,16.09
2019-05-09T09:41:07.795Z,15.97
2019-05-09T09:43:38.367Z,16.11
2019-05-09T09:46:13.638Z,16.41
2019-05-09T09:48:38.775Z,16.80
2019-05-09T09:51:08.041Z,16.69
2019-05-09T09:53:38.472Z,16.87
2019-05-09T09:56:08.487Z,16.44
2019-05-09T09:58:37.940Z,16.46
2019-05-09T10:01:09.048Z,16.71
2019-05-09T10:03:37.582Z,16.89
2019-05-09T10:06:05.810Z,16.77
2019-05-09T10:08:34.053Z,16.97
2019-05-09T10:11:02.315Z,16.42
2019-05-09T10:13:30.555Z,16.08
2019-05-09T10:16:13.089Z,15.97
2019-05-09T10:18:38.340Z,15.96
2019-05-09T10:21:08.452Z,16.17
2019-05-09T10:23:37.867Z,16.00
2019-05-09T10:26:08.522Z,16.23
2019-05-09T10:28:38.034Z,16.79
2019-05-09T10:31:06.371Z,16.11
2019-05-09T10:33:34.602Z,15.74
2019-05-09T10:36:04.865Z,16.31
2019-05-09T10:38:32.985Z,16.46
2019-05-09T10:41:02.068Z,16.36
2019-05-09T10:43:44.353Z,17.21
2019-05-09T10:46:47.501Z,17.01
2019-05-09T10:49:00.784Z,17.09
2019-05-09T10:51:29.069Z,16.55
2019-05-09T10:53:58.816Z,16.18
2019-05-09T10:56:28.193Z,15.89
2019-05-09T10:58:58.478Z,15.64
2019-05-09T11:01:29.405Z,15.47
2019-05-09T11:03:58.926Z,15.72
2019-05-09T11:06:28.740Z,15.84
2019-05-09T11:08:58.334Z,15.94
2019-05-09T11:11:28.509Z,16.24
2019-05-09T11:13:58.734Z,16.99
2019-05-09T11:16:39.640Z,16.89
2019-05-09T11:18:58.557Z,16.43
2019-05-09T11:21:28.528Z,16.31
2019-05-09T11:23:58.298Z,16.72
2019-05-09T11:26:28.455Z,16.30
2019-05-09T11:28:58.698Z,15.99
2019-05-09T11:31:29.102Z,15.84
2019-05-09T11:33:57.926Z,15.73
2019-05-09T11:36:26.397Z,15.60
2019-05-09T11:38:54.714Z,16.53
2019-05-09T11:41:22.906Z,16.87
2019-05-09T11:43:51.222Z,16.52
2019-05-09T11:46:19.452Z,16.27
2019-05-09T11:48:47.672Z,16.43
2019-05-09T11:51:20.385Z,16.20
2019-05-09T11:53:48.265Z,16.75
2019-05-09T11:56:17.981Z,17.63
2019-05-09T11:58:47.983Z,17.65
2019-05-09T12:01:18.586Z,17.60
2019-05-09T12:03:49.901Z,17.16
2019-05-09T12:06:16.408Z,16.99
2019-05-09T12:08:48.087Z,16.55
2019-05-09T12:11:18.200Z,16.41
2019-05-09T12:13:48.226Z,16.76
2019-05-09T12:16:18.118Z,17.67
2019-05-09T12:18:45.707Z,17.81
2019-05-09T12:21:14.075Z,18.03
2019-05-09T12:23:42.306Z,18.25
2019-05-09T12:26:10.633Z,18.50
2019-05-09T12:28:38.875Z,18.49
2019-05-09T12:31:07.875Z,18.40
2019-05-09T12:33:36.365Z,17.76
2019-05-09T12:36:04.697Z,17.38
2019-05-09T12:38:32.993Z,17.93
2019-05-09T12:41:01.265Z,18.21
2019-05-09T12:43:29.493Z,18.35
2019-05-09T12:45:57.928Z,18.38
2019-05-09T12:48:27.948Z,18.13
2019-05-09T12:50:58.385Z,17.89
2019-05-09T12:53:28.050Z,17.89
2019-05-09T12:56:01.623Z,18.09
2019-05-09T12:58:30.377Z,17.63
2019-05-09T13:00:59.256Z,17.48
2019-05-09T13:03:28.658Z,17.73
2019-05-09T13:05:57.672Z,18.03
2019-05-09T13:08:27.831Z,17.46
2019-05-09T13:10:58.158Z,17.04
2019-05-09T13:13:29.110Z,16.73
2019-05-09T13:16:00.635Z,16.80
2019-05-09T13:18:30.557Z,17.79
2019-05-09T13:20:58.792Z,17.79
2019-05-09T13:23:28.885Z,17.93
2019-05-09T13:25:58.609Z,17.93
2019-05-09T13:28:27.203Z,17.51
2019-05-09T13:30:58.293Z,17.49
2019-05-09T13:33:25.393Z,18.08
2019-05-09T13:35:53.669Z,18.08
2019-05-09T13:38:21.907Z,18.08
2019-05-09T13:40:53.668Z,17.48
2019-05-09T13:43:20.270Z,17.48
2019-05-09T13:45:48.551Z,17.21
2019-05-09T13:48:28.069Z,17.10
2019-05-09T13:50:46.795Z,17.10
2019-05-09T13:53:15.034Z,17.25
2019-05-09T13:55:43.307Z,17.25
2019-05-09T13:58:11.533Z,17.19
2019-05-09T14:00:55.438Z,17.08
2019-05-09T14:03:09.812Z,16.99
2019-05-09T14:05:38.044Z,16.86
2019-05-09T14:08:09.139Z,16.90
2019-05-09T14:10:38.739Z,16.92
2019-05-09T14:13:10.726Z,17.08
2019-05-09T14:15:36.451Z,17.18
2019-05-09T14:18:05.497Z,17.14
2019-05-09T14:20:33.791Z,17.13
2019-05-09T14:23:02.068Z,17.00
2019-05-09T14:25:30.324Z,16.88
2019-05-09T14:27:58.637Z,16.75
2019-05-09T14:30:27.571Z,16.75
2019-05-09T14:33:00.075Z,16.72
2019-05-09T14:35:27.735Z,16.63
2019-05-09T14:37:56.180Z,16.56
2019-05-09T14:40:24.410Z,16.55
2019-05-09T14:42:52.920Z,16.50
2019-05-09T14:45:21.299Z,16.46
2019-05-09T14:47:49.537Z,16.46
2019-05-09T14:50:18.244Z,16.40
2019-05-09T14:52:49.089Z,16.34
2019-05-09T14:55:17.940Z,16.19
2019-05-09T14:57:48.049Z,16.11
2019-05-09T15:00:18.823Z,16.00
2019-05-09T15:02:48.882Z,15.91
2019-05-09T15:05:18.836Z,15.85
2019-05-09T15:07:47.609Z,15.78
2019-05-09T15:10:18.749Z,15.75
2019-05-09T15:12:48.116Z,15.68
2019-05-09T15:15:18.435Z,15.59
2019-05-09T15:17:49.365Z,15.58
2019-05-09T15:20:18.018Z,15.61
2019-05-09T15:22:47.879Z,15.68
2019-05-09T15:25:19.275Z,15.63
2019-05-09T15:27:47.661Z,15.66
2019-05-09T15:30:18.468Z,15.73
2019-05-09T15:32:47.411Z,15.81
2019-05-09T15:35:18.119Z,15.85
2019-05-09T15:37:48.108Z,15.89
2019-05-09T15:40:17.727Z,15.83
2019-05-09T15:42:47.914Z,15.80
2019-05-09T15:45:18.142Z,15.78
2019-05-09T15:47:48.121Z,15.77
2019-05-09T15:50:22.510Z,15.74
2019-05-09T15:52:46.052Z,15.67
2019-05-09T15:55:14.285Z,15.55
2019-05-09T15:57:42.549Z,15.56
2019-05-09T16:00:12.571Z,15.55
2019-05-09T16:02:40.894Z,15.58
2019-05-09T16:05:10.704Z,15.53
2019-05-09T16:07:39.324Z,15.57
2019-05-09T16:10:08.628Z,15.71
2019-05-09T16:12:38.348Z,15.75
2019-05-09T16:15:07.815Z,15.72
2019-05-09T16:17:39.331Z,15.66
2019-05-09T16:20:08.503Z,15.68
2019-05-09T16:22:39.263Z,15.64
2019-05-09T16:25:07.941Z,15.55
2019-05-09T16:27:37.911Z,15.50
2019-05-09T16:30:08.560Z,15.48
2019-05-09T16:32:37.716Z,15.43
2019-05-09T16:35:07.937Z,15.41
2019-05-09T16:37:56.698Z,15.41
2019-05-09T16:40:08.427Z,15.42
2019-05-09T16:42:38.146Z,15.43
2019-05-09T16:45:08.071Z,15.44
2019-05-09T16:47:36.642Z,15.50
2019-05-09T16:50:09.017Z,15.53
2019-05-09T16:52:43.017Z,15.50
2019-05-09T16:55:08.826Z,15.52
2019-05-09T16:57:37.729Z,15.51
2019-05-09T17:00:09.931Z,15.55
2019-05-09T17:02:38.313Z,15.57
2019-05-09T17:05:08.360Z,15.64
2019-05-09T17:07:38.387Z,15.66
2019-05-09T17:10:08.432Z,15.67
2019-05-09T17:12:37.171Z,15.55
2019-05-09T17:15:08.531Z,15.44
2019-05-09T17:17:38.556Z,15.32
2019-05-09T17:20:08.754Z,15.32
2019-05-09T17:23:08.320Z,15.15
2019-05-09T17:25:24.658Z,15.00
2019-05-09T17:27:55.913Z,14.88
2019-05-09T17:30:23.039Z,14.82
2019-05-09T17:32:51.266Z,14.80
2019-05-09T17:35:19.574Z,14.83
2019-05-09T17:37:48.158Z,14.83
2019-05-09T17:40:19.104Z,14.79
2019-05-09T17:42:46.828Z,14.77
2019-05-09T17:45:15.434Z,14.77
2019-05-09T17:47:43.784Z,14.77
2019-05-09T17:50:12.025Z,14.80
2019-05-09T17:52:40.597Z,14.75
2019-05-09T17:55:09.139Z,14.72
2019-05-09T17:57:38.784Z,14.64
2019-05-09T18:00:11.534Z,14.60
2019-05-09T18:02:39.823Z,14.58
2019-05-09T18:05:08.054Z,14.52
2019-05-09T18:07:37.706Z,14.48
2019-05-09T18:10:07.717Z,14.46
2019-05-09T18:12:38.403Z,14.42
2019-05-09T18:15:07.819Z,14.36
2019-05-09T18:17:38.146Z,14.28
2019-05-09T18:20:08.084Z,14.22
2019-05-09T18:22:36.375Z,14.17
2019-05-09T18:25:05.170Z,14.14
2019-05-09T18:27:33.451Z,14.14
2019-05-09T18:30:01.681Z,14.14
2019-05-09T18:32:47.643Z,14.12
2019-05-09T18:35:21.100Z,14.14
2019-05-09T18:37:49.462Z,14.10
2019-05-09T18:40:18.134Z,14.08
2019-05-09T18:42:47.573Z,14.09
2019-05-09T18:45:17.529Z,14.05
2019-05-09T18:47:47.999Z,14.03
2019-05-09T18:50:16.673Z,13.99
2019-05-09T18:52:44.901Z,13.96
2019-05-09T18:55:13.196Z,13.95
2019-05-09T18:57:41.423Z,13.92
2019-05-09T19:00:11.950Z,13.95
2019-05-09T19:02:40.351Z,13.92
2019-05-09T19:05:08.718Z,13.89
2019-05-09T19:07:36.949Z,13.86
2019-05-09T19:10:06.963Z,13.86
2019-05-09T19:12:35.222Z,13.86
2019-05-09T19:15:06.919Z,13.87
2019-05-09T19:17:36.799Z,13.86
2019-05-09T19:20:06.915Z,13.87
2019-05-09T19:22:35.155Z,13.79
2019-05-09T19:25:03.542Z,13.77
2019-05-09T19:27:32.028Z,13.75
2019-05-09T19:30:00.269Z,13.77
2019-05-09T19:32:28.557Z,13.81
2019-05-09T19:34:56.822Z,13.81
2019-05-09T19:37:25.112Z,13.81
2019-05-09T19:39:53.354Z,13.81
2019-05-09T19:42:21.627Z,13.74
2019-05-09T19:44:50.066Z,13.67
2019-05-09T19:47:18.265Z,13.62
2019-05-09T19:49:46.557Z,13.60
2019-05-09T19:52:14.840Z,13.58
2019-05-09T19:54:43.112Z,13.55
2019-05-09T19:57:11.345Z,13.54
2019-05-09T19:59:39.648Z,13.49
2019-05-09T20:02:07.950Z,13.46
2019-05-09T20:04:36.372Z,13.50
2019-05-09T20:07:04.606Z,13.46
2019-05-09T20:09:40.360Z,13.47
2019-05-09T20:12:10.256Z,13.41
2019-05-09T20:14:40.183Z,13.43
2019-05-09T20:17:08.456Z,13.39
2019-05-09T20:19:36.767Z,13.40
2019-05-09T20:22:05.229Z,13.36
2019-05-09T20:24:33.497Z,13.35
2019-05-09T20:27:01.759Z,13.34
2019-05-09T20:29:30.511Z,13.30
2019-05-09T20:31:59.066Z,13.37
2019-05-09T20:34:27.305Z,13.45
2019-05-09T20:36:55.596Z,13.44
2019-05-09T20:39:24.002Z,13.34
2019-05-09T20:41:52.464Z,13.28
2019-05-09T20:44:20.929Z,13.17
2019-05-09T20:46:49.344Z,13.20
2019-05-09T20:49:17.756Z,13.25
2019-05-09T20:51:46.310Z,13.27
2019-05-09T20:54:21.232Z,13.21
2019-05-09T20:56:44.871Z,13.08
2019-05-09T20:59:13.319Z,12.98
2019-05-09T21:01:41.735Z,12.90
2019-05-09T21:04:10.194Z,12.88
2019-05-09T21:06:38.615Z,12.85
2019-05-09T21:09:07.148Z,12.82
2019-05-09T21:11:36.219Z,12.87
2019-05-09T21:14:04.699Z,12.88
2019-05-09T21:16:33.117Z,12.84
2019-05-09T21:19:01.579Z,12.82
2019-05-09T21:21:29.998Z,12.79
2019-05-09T21:23:58.476Z,12.76
2019-05-09T21:26:26.887Z,12.76
2019-05-09T21:28:55.337Z,12.74
2019-05-09T21:31:23.763Z,12.77
2019-05-09T21:33:52.242Z,12.77
2019-05-09T21:36:20.475Z,12.75
2019-05-09T21:38:48.727Z,12.79
2019-05-09T21:41:16.988Z,12.81
2019-05-09T21:43:45.216Z,12.81
2019-05-09T21:46:13.544Z,12.78
2019-05-09T21:48:41.727Z,12.76
2019-05-09T21:51:10.012Z,12.78
2019-05-09T21:53:41.034Z,12.82
2019-05-09T21:56:08.256Z,12.80
2019-05-09T21:58:36.488Z,12.84
2019-05-09T22:01:04.778Z,12.86
2019-05-09T22:03:33.163Z,12.85
2019-05-09T22:06:01.440Z,12.83
2019-05-09T22:08:29.685Z,12.85
2019-05-09T22:10:57.970Z,12.84
2019-05-09T22:13:26.239Z,12.81
2019-05-09T22:15:54.468Z,12.80
2019-05-09T22:18:22.770Z,12.77
2019-05-09T22:20:51.201Z,12.72
2019-05-09T22:23:19.482Z,12.71
2019-05-09T22:25:47.718Z,12.69
2019-05-09T22:28:16.002Z,12.73
2019-05-09T22:30:44.247Z,12.74
2019-05-09T22:33:12.520Z,12.72
2019-05-09T22:35:40.758Z,12.70
2019-05-09T22:38:09.056Z,12.67
2019-05-09T22:40:37.283Z,12.62
2019-05-09T22:43:05.666Z,12.61
2019-05-09T22:45:33.909Z,12.57
2019-05-09T22:48:02.196Z,12.55
2019-05-09T22:50:30.422Z,12.61
2019-05-09T22:52:58.661Z,12.60
2019-05-09T22:55:26.946Z,12.57
2019-05-09T22:57:55.185Z,12.54
2019-05-09T23:00:23.483Z,12.57
2019-05-09T23:02:51.702Z,12.56
2019-05-09T23:05:19.981Z,12.51
2019-05-09T23:07:48.207Z,12.53
2019-05-09T23:10:16.489Z,12.50
2019-05-09T23:12:44.721Z,12.52
2019-05-09T23:15:14.635Z,12.51
2019-05-09T23:17:42.869Z,12.48
2019-05-09T23:20:28.927Z,12.46
2019-05-09T23:22:57.235Z,12.45
2019-05-09T23:25:25.521Z,12.46
2019-05-09T23:27:53.755Z,12.46
2019-05-09T23:30:22.104Z,12.46
2019-05-09T23:32:50.336Z,12.46
2019-05-09T23:35:18.615Z,12.40
2019-05-09T23:37:46.860Z,12.41
2019-05-09T23:40:15.229Z,12.40
2019-05-09T23:42:43.460Z,12.42
2019-05-09T23:45:11.687Z,12.45
2019-05-09T23:47:39.966Z,12.41
2019-05-09T23:50:08.274Z,12.42
2019-05-09T23:52:36.536Z,12.40
2019-05-09T23:55:22.972Z,12.40
2019-05-09T23:58:09.376Z,12.39
